BLY11 EGKK-RJAA
Flight info
| Callsign | BLY11 |
|---|---|
| Flight time | N/A |
| Altitude | 33000 |
| Route | WIZAD DCT KONAN UL607 KOK M150 PITES DCT NOMBO Y161 RIDAR Z98 WLD T702 BADIT DCT SASAL/N0490F350 DCT MAVIR DCT NEKUL DCT PETOS DCT NEDSI T343 UDROS UM859 KARDE UN644 ROLIN N644 LAGAS M747 SUBUT T916 BALUN/K0906F370 T916 PIGAL M610 RULAD/K0883S1130 A343 POSOT B215 FKG W188 LIKMI/K0885S1190 W270 DKO W69 HUR B339 LADIX W34 ANRAT A326 DONVO G597 AGAVO/N0481F390 Y644 EGOBA G597 LANAT Y51 LARIX |
| Aircraft | A388/J-SADE2E3FGHIJ3J4J5M1RWXY/LB1D1 |
Departure
| Time | 2026-04-16 11:00 |
|---|---|
| Airport | London Gatwick Airport (EGKK) |
Arrival
| Time | N/A |
|---|---|
| Airport | Narita International Airport (RJAA) |
| Time | Latitude | Longitude | Altitude | Speed | Heading |
|---|---|---|---|---|---|
| 2026-04-16 10:07 | 51.15923 | -0.17967 | 209 ft | 0 kts | 78° |
| 2026-04-16 10:37 | 51.15923 | -0.17968 | 209 ft | 1 kts | 78° |
| 2026-04-16 10:37 | 51.15921 | -0.17979 | 220 ft | 1 kts | 78° |
| 2026-04-16 10:37 | 51.15920 | -0.17989 | 220 ft | 1 kts | 78° |
| 2026-04-16 10:37 | 51.15918 | -0.18000 | 219 ft | 1 kts | 78° |
| 2026-04-16 10:38 | 51.15917 | -0.18012 | 214 ft | 2 kts | 78° |
| 2026-04-16 10:38 | 51.15915 | -0.18028 | 205 ft | 1 kts | 80° |
| 2026-04-16 10:38 | 51.15914 | -0.18045 | 209 ft | 1 kts | 85° |
| 2026-04-16 10:38 | 51.15915 | -0.18061 | 217 ft | 2 kts | 101° |
| 2026-04-16 10:39 | 51.15919 | -0.18076 | 214 ft | 1 kts | 112° |
| 2026-04-16 10:39 | 51.15923 | -0.18091 | 219 ft | 2 kts | 119° |
| 2026-04-16 10:39 | 51.15930 | -0.18103 | 217 ft | 2 kts | 141° |
| 2026-04-16 10:39 | 51.15940 | -0.18107 | 222 ft | 1 kts | 168° |
| 2026-04-16 10:40 | 51.15942 | -0.18108 | 222 ft | 0 kts | 168° |
| 2026-04-16 10:46 | 51.15940 | -0.18107 | 222 ft | 0 kts | 168° |
| 2026-04-16 10:47 | 51.15924 | -0.18102 | 217 ft | 5 kts | 168° |
| 2026-04-16 10:47 | 51.15886 | -0.18090 | 216 ft | 5 kts | 168° |
| 2026-04-16 10:47 | 51.15854 | -0.18079 | 214 ft | 4 kts | 168° |
| 2026-04-16 10:47 | 51.15830 | -0.18071 | 217 ft | 3 kts | 168° |
| 2026-04-16 10:48 | 51.15807 | -0.18064 | 217 ft | 4 kts | 168° |
| 2026-04-16 10:48 | 51.15785 | -0.18056 | 214 ft | 4 kts | 168° |
| 2026-04-16 10:48 | 51.15752 | -0.18046 | 220 ft | 6 kts | 168° |
| 2026-04-16 10:48 | 51.15736 | -0.18041 | 220 ft | 0 kts | 168° |
| 2026-04-16 10:49 | 51.15736 | -0.18040 | 220 ft | 1 kts | 168° |
| 2026-04-16 10:49 | 51.15706 | -0.18045 | 212 ft | 5 kts | 214° |
| 2026-04-16 10:49 | 51.15689 | -0.18081 | 214 ft | 5 kts | 250° |
| 2026-04-16 10:49 | 51.15677 | -0.18136 | 215 ft | 6 kts | 253° |
| 2026-04-16 10:50 | 51.15668 | -0.18186 | 215 ft | 2 kts | 251° |
| 2026-04-16 10:50 | 51.15650 | -0.18224 | 218 ft | 9 kts | 206° |
| 2026-04-16 10:50 | 51.15543 | -0.18208 | 212 ft | 24 kts | 167° |
| 2026-04-16 10:50 | 51.15462 | -0.18172 | 216 ft | 8 kts | 165° |
| 2026-04-16 10:51 | 51.15418 | -0.18156 | 218 ft | 5 kts | 168° |
| 2026-04-16 10:51 | 51.15387 | -0.18145 | 217 ft | 4 kts | 168° |
| 2026-04-16 10:51 | 51.15367 | -0.18139 | 217 ft | 2 kts | 168° |
| 2026-04-16 10:51 | 51.15337 | -0.18129 | 217 ft | 7 kts | 167° |
| 2026-04-16 10:52 | 51.15296 | -0.18114 | 219 ft | 4 kts | 167° |
| 2026-04-16 10:52 | 51.15293 | -0.18113 | 218 ft | 0 kts | 167° |
| 2026-04-16 10:52 | 51.15278 | -0.18107 | 213 ft | 9 kts | 167° |
| 2026-04-16 10:53 | 51.15238 | -0.18076 | 218 ft | 4 kts | 130° |
| 2026-04-16 10:53 | 51.15230 | -0.18047 | 218 ft | 0 kts | 96° |
| 2026-04-16 10:53 | 51.15229 | -0.18046 | 218 ft | 1 kts | 96° |
| 2026-04-16 10:53 | 51.15235 | -0.17944 | 212 ft | 17 kts | 79° |
| 2026-04-16 10:54 | 51.15262 | -0.17734 | 218 ft | 21 kts | 78° |
| 2026-04-16 10:54 | 51.15292 | -0.17502 | 217 ft | 15 kts | 79° |
| 2026-04-16 10:54 | 51.15293 | -0.17384 | 213 ft | 3 kts | 139° |
| 2026-04-16 10:54 | 51.15241 | -0.17314 | 220 ft | 0 kts | 139° |
| 2026-04-16 10:55 | 51.15229 | -0.17298 | 219 ft | 0 kts | 139° |
| 2026-04-16 10:55 | 51.15223 | -0.17246 | 220 ft | 14 kts | 60° |
| 2026-04-16 10:55 | 51.15273 | -0.17023 | 215 ft | 13 kts | 76° |
| 2026-04-16 10:55 | 51.15286 | -0.16938 | 212 ft | 9 kts | 77° |
| 2026-04-16 10:56 | 51.15295 | -0.16877 | 216 ft | 8 kts | 77° |
| 2026-04-16 10:56 | 51.15311 | -0.16759 | 214 ft | 29 kts | 77° |
| 2026-04-16 10:56 | 51.15319 | -0.16700 | 220 ft | 0 kts | 77° |
| 2026-04-16 10:56 | 51.15319 | -0.16675 | 215 ft | 2 kts | 123° |
| 2026-04-16 10:57 | 51.15297 | -0.16662 | 217 ft | 8 kts | 172° |
| 2026-04-16 10:57 | 51.15272 | -0.16656 | 215 ft | 0 kts | 171° |
| 2026-04-16 10:58 | 51.15228 | -0.16644 | 219 ft | 14 kts | 170° |
| 2026-04-16 10:58 | 51.15138 | -0.16701 | 214 ft | 19 kts | 252° |
| 2026-04-16 10:59 | 51.15106 | -0.16918 | 217 ft | 0 kts | 258° |
| 2026-04-16 10:59 | 51.15061 | -0.17247 | 209 ft | 69 kts | 257° |
| 2026-04-16 10:59 | 51.14902 | -0.18372 | 216 ft | 135 kts | 257° |
| 2026-04-16 11:00 | 51.14670 | -0.20036 | 336 ft | 163 kts | 257° |
| 2026-04-16 11:00 | 51.14460 | -0.21712 | 967 ft | 161 kts | 255° |
| 2026-04-16 11:00 | 51.14219 | -0.23529 | 1500 ft | 161 kts | 256° |
| 2026-04-16 11:00 | 51.13988 | -0.25269 | 2103 ft | 166 kts | 256° |
| 2026-04-16 11:01 | 51.13731 | -0.27163 | 2395 ft | 182 kts | 257° |
| 2026-04-16 11:01 | 51.13765 | -0.29281 | 2539 ft | 211 kts | 286° |
| 2026-04-16 11:01 | 51.14658 | -0.31270 | 2867 ft | 236 kts | 319° |
| 2026-04-16 11:01 | 51.16192 | -0.32275 | 3612 ft | 245 kts | 350° |